Time;durP1;ratioP1;P1;durP2;ratioP2;P2;SDS_P1;SDS_P2;PMS_P1;PMS_P2;Temp;Humidity;BMP_temperature;BMP_pressure;BME280_temperature;BME280_humidity;BME280_pressure;Samples;Min_cycle;Max_cycle;Signal;HPM_P1;HPM_P2
2021/08/16 00:00:43;;;;;;;12.55;9.57;;;20.20;99.90;;;;;;5052960;28;20110;-81
2021/08/16 00:03:09;;;;;;;13.27;9.63;;;20.20;99.90;;;;;;4967311;28;20019;-80
2021/08/16 00:05:35;;;;;;;17.05;10.88;;;20.20;99.90;;;;;;5053081;28;20027;-81
2021/08/16 00:08:00;;;;;;;15.95;9.90;;;20.10;99.90;;;;;;4953442;29;20396;-81
2021/08/16 00:10:26;;;;;;;14.73;10.55;;;20.20;99.90;;;;;;4965975;28;20069;-81
2021/08/16 00:12:51;;;;;;;12.25;9.65;;;20.10;99.90;;;;;;4971260;28;20027;-81
2021/08/16 00:15:17;;;;;;;12.88;9.93;;;20.10;99.90;;;;;;4971368;28;20117;-81
2021/08/16 00:17:44;;;;;;;12.90;10.32;;;20.10;99.90;;;;;;4971236;28;20041;-81
2021/08/16 00:20:10;;;;;;;12.82;10.07;;;20.10;99.90;;;;;;4972566;28;20030;-80
2021/08/16 00:22:36;;;;;;;10.82;9.35;;;20.20;99.90;;;;;;4970401;28;20081;-80
2021/08/16 00:25:02;;;;;;;14.43;10.27;;;20.20;99.90;;;;;;4972538;28;20035;-81
2021/08/16 00:27:29;;;;;;;11.23;9.70;;;20.10;99.90;;;;;;4972046;28;20073;-80
2021/08/16 00:29:55;;;;;;;11.15;9.77;;;20.10;99.90;;;;;;4972450;28;20453;-80
2021/08/16 00:32:20;;;;;;;12.13;10.50;;;20.10;99.90;;;;;;4972136;28;20071;-80
2021/08/16 00:34:46;;;;;;;13.30;10.02;;;20.00;99.90;;;;;;4972346;28;20464;-80
2021/08/16 00:37:12;;;;;;;13.10;9.93;;;20.00;99.90;;;;;;4959172;28;20380;-79
2021/08/16 00:39:37;;;;;;;13.65;11.10;;;20.00;99.90;;;;;;4971023;28;20473;-80
2021/08/16 00:42:05;;;;;;;11.73;10.50;;;19.90;99.90;;;;;;4970891;28;20080;-80
2021/08/16 00:44:31;;;;;;;16.60;10.63;;;19.90;99.90;;;;;;4970833;28;20027;-80
2021/08/16 00:46:57;;;;;;;13.57;10.32;;;19.90;99.90;;;;;;4970830;28;20441;-81
2021/08/16 00:49:23;;;;;;;12.68;10.07;;;19.80;99.90;;;;;;4972053;28;20022;-80
2021/08/16 00:51:49;;;;;;;11.82;9.07;;;19.80;99.90;;;;;;4960095;28;20122;-80
2021/08/16 00:54:14;;;;;;;16.27;10.07;;;19.90;99.90;;;;;;4952681;29;20509;-81
2021/08/16 00:56:40;;;;;;;18.27;10.73;;;19.90;99.90;;;;;;4959669;28;20027;-81
2021/08/16 00:59:11;;;;;;;11.45;10.25;;;20.00;99.90;;;;;;4970706;28;20388;-80
2021/08/16 01:01:37;;;;;;;11.77;9.98;;;20.00;99.90;;;;;;4970279;28;20027;-79
2021/08/16 01:04:02;;;;;;;12.55;10.23;;;20.00;99.90;;;;;;4970599;28;20508;-79
2021/08/16 01:06:29;;;;;;;13.23;10.23;;;20.00;99.90;;;;;;4970428;28;20031;-80
2021/08/16 01:08:55;;;;;;;10.52;9.43;;;20.00;99.90;;;;;;4970524;28;20088;-81
2021/08/16 01:11:21;;;;;;;12.73;10.35;;;20.00;99.90;;;;;;4986158;28;20066;-80
2021/08/16 01:13:47;;;;;;;13.70;10.80;;;20.00;99.90;;;;;;4970438;28;20046;-82
2021/08/16 01:16:15;;;;;;;14.48;10.57;;;20.00;99.90;;;;;;4971191;28;20027;-80
2021/08/16 01:18:41;;;;;;;12.70;10.05;;;20.00;99.90;;;;;;4967224;28;20023;-80
2021/08/16 01:21:10;;;;;;;13.02;10.68;;;20.00;99.90;;;;;;4970230;28;20019;-81
2021/08/16 01:23:36;;;;;;;18.77;12.07;;;20.00;99.90;;;;;;4969911;28;20048;-80
2021/08/16 01:26:03;;;;;;;15.25;12.10;;;20.00;99.90;;;;;;4971543;28;20034;-80
2021/08/16 01:28:29;;;;;;;16.60;11.70;;;19.90;99.90;;;;;;4968636;28;20403;-80
2021/08/16 01:30:58;;;;;;;16.67;11.65;;;19.90;99.90;;;;;;4971576;28;20503;-80
2021/08/16 01:33:25;;;;;;;12.30;10.98;;;19.90;99.90;;;;;;4969625;28;20057;-81
2021/08/16 01:35:51;;;;;;;16.55;11.48;;;19.90;99.90;;;;;;4971510;28;20039;-81
2021/08/16 01:38:19;;;;;;;13.00;11.35;;;19.90;99.90;;;;;;4969960;28;20460;-81
2021/08/16 01:40:46;;;;;;;12.82;10.70;;;19.90;99.90;;;;;;4969937;28;20011;-81
2021/08/16 01:43:11;;;;;;;12.88;10.93;;;19.90;99.90;;;;;;4969581;28;20072;-81
2021/08/16 01:45:37;;;;;;;13.85;11.05;;;20.00;99.90;;;;;;4970300;28;20027;-81
2021/08/16 01:48:03;;;;;;;14.43;10.43;;;20.00;99.90;;;;;;4970030;28;20018;-81
2021/08/16 01:50:29;;;;;;;15.13;11.27;;;19.90;99.90;;;;;;4968320;28;20146;-81
2021/08/16 01:52:54;;;;;;;13.68;10.77;;;20.00;99.90;;;;;;4970701;28;20429;-81
2021/08/16 01:55:20;;;;;;;16.58;11.27;;;20.00;99.90;;;;;;4971143;28;20019;-81
2021/08/16 01:57:47;;;;;;;12.55;10.73;;;20.10;99.90;;;;;;4969399;28;20035;-80
2021/08/16 02:00:13;;;;;;;15.63;11.52;;;19.90;99.90;;;;;;4968339;28;20031;-81
2021/08/16 02:02:39;;;;;;;14.18;11.63;;;19.70;99.90;;;;;;4968992;28;20038;-81
2021/08/16 02:05:05;;;;;;;12.40;10.73;;;19.70;99.90;;;;;;4969871;28;20487;-81
2021/08/16 02:07:30;;;;;;;18.30;12.73;;;19.70;99.90;;;;;;4967593;28;20046;-80
2021/08/16 02:09:56;;;;;;;17.27;10.98;;;19.80;99.90;;;;;;4971200;28;20032;-80
2021/08/16 02:12:21;;;;;;;16.65;11.95;;;19.80;99.90;;;;;;4970454;28;20039;-80
2021/08/16 02:14:47;;;;;;;13.20;10.45;;;19.90;99.90;;;;;;4971048;28;20031;-80
2021/08/16 02:17:13;;;;;;;17.10;10.50;;;19.90;99.90;;;;;;4970374;28;20106;-79
2021/08/16 02:19:39;;;;;;;14.00;10.60;;;19.90;99.90;;;;;;4970837;28;20029;-79
2021/08/16 02:22:04;;;;;;;12.80;9.55;;;19.90;99.90;;;;;;4969076;28;20031;-79
2021/08/16 02:24:30;;;;;;;12.70;10.20;;;19.80;99.90;;;;;;4970893;28;20080;-80
2021/08/16 02:26:55;;;;;;;10.60;8.82;;;19.90;99.90;;;;;;4969194;28;20027;-80
2021/08/16 02:29:21;;;;;;;13.63;9.77;;;19.90;99.90;;;;;;5054318;28;20018;-80
2021/08/16 02:31:48;;;;;;;17.23;10.55;;;19.80;99.90;;;;;;5057584;28;20027;-80
2021/08/16 02:34:13;;;;;;;15.25;10.60;;;19.70;99.90;;;;;;4972696;28;20077;-81
2021/08/16 02:36:39;;;;;;;13.43;10.65;;;19.70;99.90;;;;;;4972371;28;20031;-81
2021/08/16 02:39:05;;;;;;;12.52;11.23;;;19.60;99.90;;;;;;4969241;28;20066;-81
2021/08/16 02:41:30;;;;;;;20.63;12.18;;;19.60;99.90;;;;;;4973312;28;20031;-81
2021/08/16 02:43:56;;;;;;;18.23;12.93;;;19.60;99.90;;;;;;4972727;28;20430;-80
2021/08/16 02:46:22;;;;;;;16.33;13.25;;;19.60;99.90;;;;;;4973443;28;20026;-81
2021/08/16 02:48:48;;;;;;;17.05;12.23;;;19.50;99.90;;;;;;4972600;28;20053;-81
2021/08/16 02:51:13;;;;;;;12.85;10.93;;;19.50;99.90;;;;;;4973876;28;20144;-81
2021/08/16 02:53:39;;;;;;;19.70;12.45;;;19.50;99.90;;;;;;4973305;28;20408;-81
2021/08/16 02:56:05;;;;;;;16.30;12.55;;;19.50;99.90;;;;;;4972603;28;20027;-82
2021/08/16 02:58:31;;;;;;;14.73;11.40;;;19.50;99.90;;;;;;4971973;28;20577;-81
2021/08/16 03:00:56;;;;;;;16.95;11.13;;;19.50;99.90;;;;;;4973824;28;20072;-81
2021/08/16 03:03:22;;;;;;;14.88;11.77;;;19.50;99.90;;;;;;4966095;28;20080;-81
2021/08/16 03:05:48;;;;;;;18.30;12.55;;;19.50;99.90;;;;;;4954244;29;20028;-81
2021/08/16 03:08:14;;;;;;;23.17;12.50;;;19.40;99.90;;;;;;4969826;28;20034;-81
2021/08/16 03:10:39;;;;;;;25.52;11.98;;;19.40;99.90;;;;;;4970813;28;20446;-80
2021/08/16 03:13:05;;;;;;;20.98;12.55;;;19.40;99.90;;;;;;4987987;28;20042;-80
2021/08/16 03:15:31;;;;;;;19.00;13.90;;;19.40;99.90;;;;;;4973431;28;20378;-80
2021/08/16 03:17:58;;;;;;;18.25;12.45;;;19.40;99.90;;;;;;4973336;28;20184;-80
2021/08/16 03:20:25;;;;;;;17.55;12.75;;;19.40;99.90;;;;;;4988315;28;20027;-81
2021/08/16 03:22:50;;;;;;;18.27;11.93;;;19.30;99.90;;;;;;4972961;28;20064;-81
2021/08/16 03:25:16;;;;;;;15.18;11.63;;;19.30;99.90;;;;;;4973320;28;20027;-81
2021/08/16 03:27:42;;;;;;;17.52;12.50;;;19.20;99.90;;;;;;4971482;28;20030;-80
2021/08/16 03:30:09;;;;;;;19.80;13.77;;;19.20;99.90;;;;;;4972102;28;20031;-80
2021/08/16 03:32:35;;;;;;;18.63;13.88;;;19.20;99.90;;;;;;4972554;28;20105;-81
2021/08/16 03:35:01;;;;;;;19.17;14.98;;;19.30;99.90;;;;;;4953330;28;20023;-81
2021/08/16 03:37:33;;;;;;;18.98;13.98;;;19.20;99.90;;;;;;4962972;28;20117;-80
2021/08/16 03:39:59;;;;;;;20.90;14.10;;;19.20;99.90;;;;;;4973538;28;20027;-80
2021/08/16 03:42:25;;;;;;;17.30;13.50;;;19.10;99.90;;;;;;4972283;28;20023;-81
2021/08/16 03:44:51;;;;;;;17.08;13.63;;;19.10;99.90;;;;;;4971873;28;20023;-81
2021/08/16 03:47:17;;;;;;;17.50;14.15;;;19.00;99.90;;;;;;4971326;28;20022;-81
2021/08/16 03:49:43;;;;;;;19.27;12.75;;;19.00;99.90;;;;;;4971767;28;20038;-80
2021/08/16 03:52:09;;;;;;;18.35;12.75;;;19.00;99.90;;;;;;4971177;28;20035;-79
2021/08/16 03:54:35;;;;;;;16.15;12.98;;;19.00;99.90;;;;;;4971668;28;20050;-80
2021/08/16 03:57:00;;;;;;;17.35;13.27;;;19.00;99.90;;;;;;4962552;28;20486;-80
2021/08/16 03:59:26;;;;;;;15.13;12.88;;;19.00;99.90;;;;;;4971605;28;20465;-81
2021/08/16 04:01:51;;;;;;;16.50;13.52;;;19.00;99.90;;;;;;4971046;28;20031;-81
2021/08/16 04:04:17;;;;;;;17.90;13.70;;;19.10;99.90;;;;;;4971513;28;20046;-81
2021/08/16 04:06:44;;;;;;;14.10;12.55;;;19.10;99.90;;;;;;4971030;28;20019;-81
2021/08/16 04:09:11;;;;;;;16.65;13.18;;;19.10;99.90;;;;;;4971400;28;20046;-82
2021/08/16 04:11:37;;;;;;;15.25;12.45;;;19.10;99.90;;;;;;4970983;28;20041;-81
2021/08/16 04:14:03;;;;;;;17.48;12.90;;;19.10;99.90;;;;;;4971333;28;20046;-80
2021/08/16 04:16:28;;;;;;;16.92;13.25;;;19.10;99.90;;;;;;4972031;28;20031;-79
2021/08/16 04:18:54;;;;;;;14.50;12.93;;;19.10;99.90;;;;;;4971248;28;20034;-80
2021/08/16 04:21:19;;;;;;;16.60;13.10;;;19.10;99.90;;;;;;4970859;28;20030;-81
2021/08/16 04:23:45;;;;;;;15.07;12.93;;;19.20;99.90;;;;;;4972433;28;20053;-81
2021/08/16 04:26:11;;;;;;;14.68;12.23;;;19.20;99.90;;;;;;4962697;28;20020;-81
2021/08/16 04:28:36;;;;;;;16.80;12.70;;;19.20;99.90;;;;;;4969602;28;20096;-82
2021/08/16 04:31:02;;;;;;;18.77;13.30;;;19.30;99.90;;;;;;4971177;28;20023;-82
2021/08/16 04:33:28;;;;;;;17.85;14.15;;;19.30;99.90;;;;;;4970381;28;20509;-82
2021/08/16 04:35:55;;;;;;;16.20;13.38;;;19.30;99.90;;;;;;4971160;28;20165;-80
2021/08/16 04:38:22;;;;;;;18.15;13.07;;;19.20;99.90;;;;;;4970473;28;20393;-80
2021/08/16 04:40:49;;;;;;;18.52;16.02;;;19.20;99.90;;;;;;4969602;28;20035;-79
2021/08/16 04:43:15;;;;;;;19.42;14.05;;;19.10;99.90;;;;;;4970517;28;20052;-79
2021/08/16 04:45:41;;;;;;;18.98;13.20;;;18.90;99.90;;;;;;4970662;28;20023;-80
2021/08/16 04:48:07;;;;;;;18.65;13.55;;;18.90;99.90;;;;;;4967712;28;20138;-80
2021/08/16 04:50:33;;;;;;;19.88;14.77;;;19.00;99.90;;;;;;4972071;28;20481;-80
2021/08/16 04:52:58;;;;;;;15.18;12.38;;;19.10;99.90;;;;;;4985941;28;20070;-80
2021/08/16 04:55:24;;;;;;;16.45;13.43;;;19.10;99.90;;;;;;4971926;28;20027;-81
2021/08/16 04:57:49;;;;;;;15.35;12.18;;;19.20;99.90;;;;;;4971515;28;20030;-81
2021/08/16 05:00:16;;;;;;;16.92;14.18;;;19.30;99.90;;;;;;4970667;28;20027;-80
2021/08/16 05:02:42;;;;;;;20.52;15.95;;;19.30;99.90;;;;;;4969973;28;20062;-80
2021/08/16 05:05:12;;;;;;;20.15;15.10;;;19.20;99.90;;;;;;4970672;28;20031;-79
2021/08/16 05:07:38;;;;;;;17.88;14.70;;;19.30;99.90;;;;;;4971347;28;20035;-80
2021/08/16 05:10:08;;;;;;;19.40;14.15;;;19.30;99.90;;;;;;4970678;28;20058;-80
2021/08/16 05:12:35;;;;;;;17.27;14.63;;;19.30;99.90;;;;;;4969948;28;20042;-81
2021/08/16 05:15:01;;;;;;;18.63;14.35;;;19.30;99.90;;;;;;4970474;28;20047;-81
2021/08/16 05:17:27;;;;;;;15.45;13.82;;;19.40;99.90;;;;;;4971140;28;20508;-80
2021/08/16 05:19:52;;;;;;;17.33;14.68;;;19.40;99.90;;;;;;4967529;28;20050;-80
2021/08/16 05:22:18;;;;;;;20.23;14.77;;;19.50;99.90;;;;;;4969889;28;20022;-80
2021/08/16 05:24:44;;;;;;;18.02;15.20;;;19.50;99.90;;;;;;4970312;28;20026;-81
2021/08/16 05:27:09;;;;;;;15.27;13.65;;;19.60;99.90;;;;;;4969815;28;20030;-81
2021/08/16 05:29:35;;;;;;;18.27;13.98;;;19.60;99.90;;;;;;4970313;28;20034;-81
2021/08/16 05:32:00;;;;;;;17.77;13.77;;;19.60;99.90;;;;;;4970260;28;20030;-80
2021/08/16 05:34:26;;;;;;;21.20;14.93;;;19.70;99.90;;;;;;4971171;28;20436;-80
2021/08/16 05:36:52;;;;;;;16.20;12.98;;;19.80;99.90;;;;;;4985983;28;20023;-80
2021/08/16 05:39:18;;;;;;;17.85;14.52;;;19.90;99.90;;;;;;4971602;28;20092;-79
2021/08/16 05:41:43;;;;;;;17.95;14.05;;;19.90;99.90;;;;;;4970962;28;20022;-81
2021/08/16 05:44:09;;;;;;;17.75;13.82;;;19.80;99.90;;;;;;4950561;28;20038;-81
2021/08/16 05:46:34;;;;;;;18.38;14.50;;;19.90;99.90;;;;;;4968010;28;20028;-79
2021/08/16 05:49:00;;;;;;;20.83;16.23;;;19.90;99.90;;;;;;4970041;28;20510;-79
2021/08/16 05:51:26;;;;;;;21.25;13.98;;;20.00;99.90;;;;;;4971118;28;20048;-79
2021/08/16 05:53:51;;;;;;;15.52;13.57;;;20.00;99.90;;;;;;4970925;28;20047;-80
2021/08/16 05:56:17;;;;;;;18.85;14.88;;;20.00;99.90;;;;;;4969959;28;20541;-81
2021/08/16 05:58:43;;;;;;;16.83;14.48;;;20.00;99.90;;;;;;4981395;28;20055;-80
2021/08/16 06:01:08;;;;;;;21.45;17.77;;;20.10;99.90;;;;;;4960945;28;20022;-81
2021/08/16 06:03:34;;;;;;;18.88;14.35;;;20.20;99.90;;;;;;4965852;28;20019;-80
2021/08/16 06:06:00;;;;;;;18.23;13.55;;;20.30;99.90;;;;;;4986458;28;20523;-79
2021/08/16 06:08:25;;;;;;;18.17;14.52;;;20.30;99.90;;;;;;4973191;28;20519;-79
2021/08/16 06:10:51;;;;;;;20.45;15.25;;;20.30;99.90;;;;;;4973231;28;20046;-79
2021/08/16 06:13:17;;;;;;;20.80;15.57;;;20.30;99.90;;;;;;4973363;28;20056;-80
2021/08/16 06:15:42;;;;;;;18.83;15.48;;;20.40;99.90;;;;;;4988863;28;20015;-80
2021/08/16 06:18:08;;;;;;;19.88;14.82;;;20.60;99.90;;;;;;4985899;28;20031;-81
2021/08/16 06:20:34;;;;;;;17.63;14.45;;;20.80;99.90;;;;;;4973769;28;20384;-80
2021/08/16 06:22:59;;;;;;;20.02;13.02;;;20.90;99.90;;;;;;4988715;28;20495;-80
2021/08/16 06:25:25;;;;;;;16.17;13.82;;;21.10;99.90;;;;;;4972383;28;20031;-80
2021/08/16 06:27:51;;;;;;;16.77;12.18;;;21.10;99.90;;;;;;4973709;28;20069;-80
2021/08/16 06:30:16;;;;;;;20.83;13.65;;;21.20;99.90;;;;;;4971147;28;20031;-79
2021/08/16 06:32:42;;;;;;;18.15;13.90;;;21.40;99.90;;;;;;4968711;28;20068;-80
2021/08/16 06:35:09;;;;;;;16.45;12.77;;;21.50;99.90;;;;;;4972422;28;20102;-80
2021/08/16 06:37:34;;;;;;;15.02;11.18;;;21.60;99.90;;;;;;4971962;28;20030;-80
2021/08/16 06:40:00;;;;;;;13.27;11.65;;;21.70;99.90;;;;;;4973187;28;20038;-80
2021/08/16 06:42:26;;;;;;;13.50;11.82;;;21.90;99.90;;;;;;4971535;28;20026;-80
2021/08/16 06:44:51;;;;;;;15.50;11.75;;;22.00;99.90;;;;;;4972811;28;20035;-80
2021/08/16 06:47:18;;;;;;;15.32;11.15;;;22.20;99.90;;;;;;4972546;28;20122;-76
2021/08/16 06:49:45;;;;;;;12.88;10.23;;;22.40;99.90;;;;;;4959196;28;20047;-78
2021/08/16 06:52:12;;;;;;;13.55;10.60;;;22.50;99.90;;;;;;4964642;28;20060;-76
2021/08/16 06:54:37;;;;;;;15.90;11.35;;;22.50;99.90;;;;;;4965639;28;20031;-77
2021/08/16 06:57:04;;;;;;;18.02;11.77;;;22.50;99.90;;;;;;4970276;28;20030;-75
2021/08/16 06:59:32;;;;;;;17.73;11.20;;;22.60;99.90;;;;;;4967883;28;20578;-75
2021/08/16 07:01:58;;;;;;;11.45;9.35;;;22.80;99.90;;;;;;4952923;28;20038;-75
2021/08/16 07:04:24;;;;;;;14.93;10.05;;;23.00;99.90;;;;;;4979212;28;20023;-74
2021/08/16 07:06:50;;;;;;;13.50;10.07;;;23.20;99.90;;;;;;4952088;28;20499;-74
2021/08/16 07:09:15;;;;;;;14.73;10.38;;;23.30;99.90;;;;;;4969726;28;20027;-75
2021/08/16 07:11:41;;;;;;;16.60;10.00;;;23.50;99.90;;;;;;4973787;28;20111;-75
2021/08/16 07:14:07;;;;;;;10.85;9.75;;;23.60;99.90;;;;;;4969326;28;20130;-75
2021/08/16 07:16:33;;;;;;;12.75;9.85;;;23.70;99.90;;;;;;4983977;28;20027;-76
2021/08/16 07:18:59;;;;;;;13.55;10.88;;;23.80;99.90;;;;;;4970208;28;20028;-76
2021/08/16 07:21:24;;;;;;;13.30;10.35;;;23.90;99.90;;;;;;4983655;28;20450;-75
2021/08/16 07:23:50;;;;;;;13.85;10.48;;;24.00;99.90;;;;;;4968705;28;20547;-75
2021/08/16 07:26:16;;;;;;;12.38;8.80;;;24.10;99.90;;;;;;4969697;28;20030;-75
2021/08/16 07:28:45;;;;;;;12.90;9.75;;;24.10;99.90;;;;;;4966383;28;20035;-76
2021/08/16 07:31:11;;;;;;;15.25;9.30;;;24.20;99.90;;;;;;4963905;28;20039;-76
2021/08/16 07:33:37;;;;;;;13.80;8.95;;;24.40;99.90;;;;;;4971544;28;20037;-75
2021/08/16 07:36:03;;;;;;;14.15;8.68;;;24.50;99.90;;;;;;4967580;28;20027;-77
2021/08/16 07:38:29;;;;;;;12.25;8.98;;;24.50;99.90;;;;;;4958030;28;20081;-76
2021/08/16 07:40:54;;;;;;;9.45;8.30;;;24.50;99.90;;;;;;4948980;28;20051;-78
2021/08/16 07:43:21;;;;;;;11.48;7.78;;;24.60;99.90;;;;;;4965431;28;20026;-79
2021/08/16 07:45:50;;;;;;;12.63;9.32;;;24.70;99.90;;;;;;4988686;28;20420;-81
2021/08/16 07:48:17;;;;;;;10.15;7.78;;;24.80;99.90;;;;;;4967667;28;20366;-80
2021/08/16 07:50:43;;;;;;;11.70;9.57;;;25.00;99.90;;;;;;4983112;28;20409;-81
2021/08/16 07:53:09;;;;;;;10.93;9.75;;;25.20;99.90;;;;;;4971746;28;20050;-79
2021/08/16 07:55:35;;;;;;;12.35;8.82;;;25.50;99.90;;;;;;4962853;28;20214;-81
2021/08/16 07:58:00;;;;;;;12.27;9.30;;;25.70;99.90;;;;;;4973523;28;20073;-79
2021/08/16 08:00:26;;;;;;;12.10;9.65;;;25.70;99.90;;;;;;4964703;28;20126;-78
2021/08/16 08:02:52;;;;;;;15.93;10.95;;;25.90;99.90;;;;;;4975422;28;20034;-77
2021/08/16 08:05:20;;;;;;;13.48;10.25;;;25.90;99.90;;;;;;4969522;28;20138;-78
2021/08/16 08:07:47;;;;;;;13.43;10.68;;;26.00;99.90;;;;;;4968031;28;20607;-80
2021/08/16 08:10:14;;;;;;;12.80;9.57;;;26.10;99.90;;;;;;4967186;28;20034;-79
2021/08/16 08:12:40;;;;;;;11.02;8.77;;;26.10;99.90;;;;;;4966634;28;20062;-80
2021/08/16 08:15:07;;;;;;;9.52;7.85;;;26.20;98.20;;;;;;4967759;28;20114;-78
2021/08/16 08:17:33;;;;;;;10.50;7.78;;;26.20;93.70;;;;;;4967696;28;20102;-78
2021/08/16 08:19:59;;;;;;;9.25;7.35;;;26.20;92.70;;;;;;5048691;28;20024;-78
2021/08/16 08:22:25;;;;;;;19.50;7.47;;;26.20;93.00;;;;;;4956965;28;20088;-77
2021/08/16 08:24:52;;;;;;;9.43;7.03;;;26.30;89.60;;;;;;4966942;28;20063;-79
2021/08/16 08:27:18;;;;;;;9.05;7.47;;;26.30;88.40;;;;;;4965479;28;20015;-77
2021/08/16 08:29:44;;;;;;;9.18;6.80;;;26.40;92.50;;;;;;5053014;28;20385;-78
2021/08/16 08:32:11;;;;;;;10.68;6.20;;;26.30;90.50;;;;;;5052593;28;20035;-78
2021/08/16 08:34:37;;;;;;;9.07;6.53;;;26.30;89.50;;;;;;4985071;28;20031;-78
2021/08/16 08:37:08;;;;;;;9.30;6.32;;;26.30;85.50;;;;;;4967120;28;20392;-78
2021/08/16 08:39:34;;;;;;;9.65;6.95;;;26.30;85.60;;;;;;4964094;28;20054;-79
2021/08/16 08:42:01;;;;;;;9.52;6.75;;;26.20;86.80;;;;;;4964085;28;20027;-77
2021/08/16 08:44:27;;;;;;;10.07;6.57;;;26.40;88.00;;;;;;4962831;28;20400;-79
2021/08/16 08:46:53;;;;;;;9.05;6.20;;;26.50;88.70;;;;;;4968884;28;20030;-79
2021/08/16 08:49:20;;;;;;;11.75;6.28;;;26.60;88.50;;;;;;4955956;28;20015;-81
2021/08/16 08:51:46;;;;;;;10.23;6.40;;;26.50;83.60;;;;;;4955327;28;20033;-81
2021/08/16 08:54:11;;;;;;;11.23;6.28;;;26.50;83.90;;;;;;4951911;28;20594;-82
2021/08/16 08:56:37;;;;;;;8.30;6.05;;;26.50;86.40;;;;;;4953981;28;20030;-79
2021/08/16 08:59:03;;;;;;;6.95;5.65;;;26.40;86.70;;;;;;4971887;28;20038;-80
2021/08/16 09:01:28;;;;;;;11.40;6.38;;;26.40;85.80;;;;;;4971012;28;20053;-81
2021/08/16 09:03:57;;;;;;;9.25;7.05;;;26.40;85.30;;;;;;4970088;28;20393;-82
2021/08/16 09:06:33;;;;;;;12.38;6.28;;;26.40;83.80;;;;;;5054293;28;20027;-83
2021/08/16 09:09:00;;;;;;;8.43;6.75;;;26.30;83.90;;;;;;5054869;28;20023;-81
2021/08/16 09:11:27;;;;;;;11.13;6.07;;;26.50;87.70;;;;;;5051841;28;20030;-81
2021/08/16 09:13:58;;;;;;;8.90;6.10;;;26.60;85.40;;;;;;4980578;28;20031;-82
2021/08/16 09:16:29;;;;;;;9.18;6.57;;;26.70;85.20;;;;;;4968430;28;20026;-79
2021/08/16 09:18:56;;;;;;;11.60;6.05;;;26.70;82.40;;;;;;4950986;28;20023;-79
2021/08/16 09:21:31;;;;;;;7.82;6.85;;;26.70;79.10;;;;;;4957960;28;20023;-79
2021/08/16 09:24:00;;;;;;;8.50;5.80;;;26.60;78.40;;;;;;4954763;28;20047;-80
2021/08/16 09:26:32;;;;;;;14.52;6.32;;;26.70;81.40;;;;;;4970518;28;20011;-80
2021/08/16 09:29:16;;;;;;;12.20;6.75;;;26.80;79.80;;;;;;4962770;28;20018;-78
2021/08/16 09:31:56;;;;;;;11.82;5.88;;;26.90;80.90;;;;;;4982337;28;21387;-80
2021/08/16 09:34:29;;;;;;;6.72;6.03;;;27.00;79.70;;;;;;4957534;28;20404;-80
2021/08/16 09:37:00;;;;;;;10.32;6.78;;;27.10;80.10;;;;;;4979251;28;20038;-79
2021/08/16 09:39:26;;;;;;;9.75;6.22;;;27.10;78.60;;;;;;4969832;28;20053;-80
2021/08/16 09:41:57;;;;;;;11.85;6.72;;;27.20;81.90;;;;;;4984363;28;20088;-80
2021/08/16 09:44:23;;;;;;;12.27;6.18;;;27.40;78.60;;;;;;4971261;28;20164;-79
2021/08/16 09:47:01;;;;;;;12.93;6.00;;;27.40;72.40;;;;;;5054110;28;20027;-79
2021/08/16 09:49:27;;;;;;;8.07;6.28;;;27.60;74.70;;;;;;4954758;28;20544;-80
2021/08/16 09:52:01;;;;;;;10.05;5.82;;;27.50;71.10;;;;;;4956485;28;20122;-79
2021/08/16 09:54:27;;;;;;;6.90;5.25;;;27.70;72.00;;;;;;4967678;28;20587;-79
2021/08/16 09:56:54;;;;;;;9.45;6.00;;;27.90;75.60;;;;;;4970366;28;20492;-79
2021/08/16 09:59:21;;;;;;;8.63;6.18;;;28.00;75.90;;;;;;4969437;28;20023;-79
2021/08/16 10:01:47;;;;;;;14.95;6.13;;;27.90;70.80;;;;;;4980079;28;20054;-78
2021/08/16 10:04:12;;;;;;;9.07;5.57;;;27.90;70.60;;;;;;4968906;28;20490;-79
2021/08/16 10:06:39;;;;;;;11.98;6.10;;;28.00;74.90;;;;;;4951391;28;20035;-79
2021/08/16 10:09:05;;;;;;;12.40;5.82;;;28.00;72.40;;;;;;4969825;28;20027;-79
2021/08/16 10:11:31;;;;;;;9.70;6.03;;;28.10;73.80;;;;;;4969138;28;20472;-78
2021/08/16 10:13:57;;;;;;;7.22;5.38;;;28.10;69.80;;;;;;5050946;28;20084;-79
2021/08/16 10:16:27;;;;;;;10.73;6.53;;;28.00;68.10;;;;;;4950954;28;20024;-78
2021/08/16 10:19:01;;;;;;;8.13;5.28;;;28.10;68.70;;;;;;4953441;28;20030;-77
2021/08/16 10:21:28;;;;;;;7.25;5.85;;;28.10;69.30;;;;;;4969576;28;20026;-77
2021/08/16 10:23:55;;;;;;;12.70;6.43;;;28.00;70.80;;;;;;4985373;28;20023;-77
2021/08/16 10:26:26;;;;;;;12.70;6.57;;;28.10;69.60;;;;;;4970795;28;20106;-77
2021/08/16 10:28:57;;;;;;;10.07;5.68;;;27.90;74.60;;;;;;4970430;28;20030;-78
2021/08/16 10:31:31;;;;;;;12.20;6.53;;;27.50;70.30;;;;;;4969381;28;20110;-78
2021/08/16 10:33:58;;;;;;;8.00;5.60;;;27.30;72.40;;;;;;4985675;28;20054;-76
2021/08/16 10:36:24;;;;;;;8.50;5.82;;;27.20;75.80;;;;;;5050414;28;20157;-79
2021/08/16 10:38:55;;;;;;;9.43;5.45;;;27.10;73.90;;;;;;5036503;28;20039;-77
2021/08/16 10:41:31;;;;;;;8.52;4.65;;;27.00;74.00;;;;;;4964852;28;20019;-75
2021/08/16 10:44:08;;;;;;;8.88;5.50;;;26.90;71.70;;;;;;4969486;28;20027;-77
2021/08/16 10:46:34;;;;;;;6.60;4.25;;;26.70;72.90;;;;;;5050821;28;20034;-78
2021/08/16 10:49:06;;;;;;;7.25;5.20;;;26.60;69.70;;;;;;4950119;28;20461;-78
2021/08/16 10:51:58;;;;;;;11.13;4.93;;;26.50;70.40;;;;;;4968874;28;20511;-78
2021/08/16 10:54:29;;;;;;;6.65;3.88;;;26.40;67.40;;;;;;4989237;28;20051;-77
2021/08/16 10:56:57;;;;;;;5.80;4.23;;;26.30;65.50;;;;;;5057252;28;20065;-77
2021/08/16 10:59:25;;;;;;;14.23;3.90;;;26.20;66.50;;;;;;4973018;28;20033;-78
2021/08/16 11:01:52;;;;;;;7.28;4.40;;;26.20;67.10;;;;;;4987507;28;20023;-78
2021/08/16 11:04:32;;;;;;;8.73;4.63;;;26.30;70.30;;;;;;4970288;28;20038;-77
2021/08/16 11:07:06;;;;;;;6.78;4.53;;;26.30;69.30;;;;;;4982982;28;20109;-77
2021/08/16 11:09:36;;;;;;;7.93;4.30;;;26.40;71.10;;;;;;4970399;28;20388;-78
2021/08/16 11:12:09;;;;;;;6.07;4.00;;;26.40;70.30;;;;;;4987289;28;20102;-78
2021/08/16 11:14:38;;;;;;;10.43;4.78;;;26.40;67.60;;;;;;4968730;28;20515;-77
2021/08/16 11:17:04;;;;;;;6.68;4.43;;;26.30;69.00;;;;;;4969203;28;20109;-77
2021/08/16 11:19:47;;;;;;;9.43;4.18;;;26.30;72.40;;;;;;4986069;28;20061;-78
2021/08/16 11:22:15;;;;;;;7.80;4.72;;;26.20;70.00;;;;;;4970583;28;20018;-77
2021/08/16 11:24:43;;;;;;;4.80;4.00;;;26.30;71.00;;;;;;4970877;28;20439;-78
2021/08/16 11:27:15;;;;;;;7.95;4.35;;;26.30;71.70;;;;;;4964257;28;20027;-78
2021/08/16 11:29:41;;;;;;;5.55;3.95;;;26.40;69.70;;;;;;4967869;28;20023;-78
2021/08/16 11:32:08;;;;;;;6.30;3.80;;;26.50;70.50;;;;;;4970212;28;20034;-79
2021/08/16 11:34:53;;;;;;;5.70;4.10;;;26.60;71.60;;;;;;4968075;28;20047;-77
2021/08/16 11:37:20;;;;;;;5.50;4.18;;;26.60;69.80;;;;;;4978178;28;20403;-77
2021/08/16 11:39:47;;;;;;;10.82;4.10;;;26.80;69.30;;;;;;4967537;28;20477;-77
2021/08/16 11:42:13;;;;;;;12.13;6.03;;;26.70;66.80;;;;;;4975716;28;20027;-77
2021/08/16 11:44:39;;;;;;;9.23;6.40;;;26.60;69.50;;;;;;4967882;28;20024;-76
2021/08/16 11:47:06;;;;;;;17.98;8.20;;;26.60;69.30;;;;;;4959498;28;20034;-77
2021/08/16 11:49:39;;;;;;;10.75;5.50;;;26.70;67.30;;;;;;4968265;28;20433;-78
2021/08/16 11:52:06;;;;;;;7.10;4.65;;;27.00;70.10;;;;;;4967054;28;20024;-76
2021/08/16 11:54:37;;;;;;;6.38;4.03;;;27.30;66.40;;;;;;4970140;28;20027;-79
2021/08/16 11:57:05;;;;;;;11.32;4.43;;;27.50;65.40;;;;;;4967397;28;20499;-78
2021/08/16 11:59:31;;;;;;;8.20;3.70;;;27.80;65.60;;;;;;4969245;28;20027;-77
2021/08/16 12:01:59;;;;;;;5.28;3.45;;;27.90;65.50;;;;;;4972283;28;20030;-78
2021/08/16 12:04:26;;;;;;;6.80;3.67;;;28.00;62.20;;;;;;4967014;28;20106;-78
2021/08/16 12:06:53;;;;;;;6.82;3.80;;;28.10;62.70;;;;;;4959379;28;20623;-76
2021/08/16 12:09:19;;;;;;;6.97;4.00;;;28.20;60.40;;;;;;4967584;28;20035;-77
2021/08/16 12:11:58;;;;;;;5.93;3.60;;;28.40;61.00;;;;;;4969643;28;20035;-77
2021/08/16 12:14:31;;;;;;;5.72;3.55;;;28.50;62.20;;;;;;4959297;28;20039;-78
2021/08/16 12:16:57;;;;;;;5.72;3.10;;;28.50;58.10;;;;;;4953639;28;20077;-77
2021/08/16 12:19:23;;;;;;;7.00;3.65;;;28.60;59.00;;;;;;4964667;28;20439;-76
2021/08/16 12:22:10;;;;;;;7.22;3.72;;;28.30;58.80;;;;;;4955059;28;20027;-77
2021/08/16 12:24:38;;;;;;;5.65;3.70;;;28.30;60.80;;;;;;4949459;28;20023;-76
2021/08/16 12:27:05;;;;;;;6.40;4.32;;;28.20;60.00;;;;;;4972809;28;20416;-76
2021/08/16 12:29:41;;;;;;;9.52;3.95;;;28.30;60.80;;;;;;4974244;28;20031;-77
2021/08/16 12:32:21;;;;;;;5.28;4.43;;;28.20;60.10;;;;;;4957046;28;20485;-77